createdAt,value
2019-01-06T00:00:16.190Z,100.0
2019-01-06T00:01:16.261Z,100.0
2019-01-06T00:02:16.525Z,100.0
2019-01-06T00:03:15.789Z,100.0
2019-01-06T00:04:16.065Z,100.0
2019-01-06T00:05:16.348Z,100.0
2019-01-06T00:06:16.614Z,100.0
2019-01-06T00:07:15.873Z,100.0
2019-01-06T00:08:16.141Z,100.0
2019-01-06T00:09:16.411Z,100.0
2019-01-06T00:10:16.698Z,100.0
2019-01-06T00:11:16.736Z,100.0
2019-01-06T00:12:16.003Z,100.0
2019-01-06T00:13:16.267Z,100.0
2019-01-06T00:14:16.526Z,100.0
2019-01-06T00:15:15.813Z,100.0
2019-01-06T00:16:16.078Z,100.0
2019-01-06T00:17:16.343Z,100.0
2019-01-06T00:18:16.611Z,100.0
2019-01-06T00:19:15.887Z,100.0
2019-01-06T00:20:16.157Z,100.0
2019-01-06T00:21:16.221Z,100.0
2019-01-06T00:22:16.497Z,100.0
2019-01-06T00:23:16.760Z,100.0
2019-01-06T00:24:16.032Z,100.0
2019-01-06T00:25:16.309Z,100.0
2019-01-06T00:26:16.569Z,100.0
2019-01-06T00:27:15.828Z,100.0
2019-01-06T00:28:16.098Z,100.0
2019-01-06T00:29:16.375Z,100.0
2019-01-06T00:30:16.679Z,100.0
2019-01-06T00:31:16.726Z,100.0
2019-01-06T00:32:16.003Z,100.0
2019-01-06T00:33:16.282Z,100.0
2019-01-06T00:34:16.563Z,100.0
2019-01-06T00:35:15.825Z,100.0
2019-01-06T00:36:16.087Z,100.0
2019-01-06T00:37:16.354Z,100.0
2019-01-06T00:38:16.618Z,100.0
2019-01-06T00:39:15.886Z,100.0
2019-01-06T00:40:16.154Z,100.0
2019-01-06T00:41:16.210Z,100.0
2019-01-06T00:42:16.480Z,100.0
2019-01-06T00:43:16.750Z,100.0
2019-01-06T00:44:16.014Z,100.0
2019-01-06T00:45:16.280Z,100.0
2019-01-06T00:46:16.545Z,100.0
2019-01-06T00:47:15.814Z,100.0
2019-01-06T00:48:16.080Z,100.0
2019-01-06T00:49:16.340Z,100.0
2019-01-06T00:50:16.613Z,100.0
2019-01-06T00:51:16.657Z,100.0
2019-01-06T00:52:15.920Z,100.0
2019-01-06T00:53:16.181Z,100.0
2019-01-06T00:54:16.450Z,100.0
2019-01-06T00:55:16.718Z,100.0
2019-01-06T00:56:15.990Z,100.0
2019-01-06T00:57:16.254Z,100.0
2019-01-06T00:58:16.521Z,100.0
2019-01-06T00:59:15.794Z,100.0
2019-01-06T01:00:16.081Z,100.0
2019-01-06T01:01:16.149Z,100.0
2019-01-06T01:02:16.415Z,100.0
2019-01-06T01:03:16.678Z,100.0
2019-01-06T01:04:15.958Z,100.0
2019-01-06T01:05:16.229Z,100.0
2019-01-06T01:06:16.464Z,100.0
2019-01-06T01:07:16.728Z,100.0
2019-01-06T01:08:15.995Z,100.0
2019-01-06T01:09:16.253Z,100.0
2019-01-06T01:10:16.526Z,100.0
2019-01-06T01:11:16.555Z,100.0
2019-01-06T01:12:15.817Z,100.0
2019-01-06T01:13:16.086Z,100.0
2019-01-06T01:14:16.349Z,100.0
2019-01-06T01:15:16.627Z,100.0
2019-01-06T01:16:15.890Z,100.0
2019-01-06T01:17:16.153Z,100.0
2019-01-06T01:18:16.415Z,100.0
2019-01-06T01:19:16.680Z,100.0
2019-01-06T01:20:15.953Z,100.0
2019-01-06T01:21:16.002Z,100.0
2019-01-06T01:22:16.590Z,100.0
2019-01-06T01:23:15.859Z,100.0
2019-01-06T01:24:16.127Z,100.0
2019-01-06T01:25:16.403Z,100.0
2019-01-06T01:26:16.675Z,100.0
2019-01-06T01:27:15.934Z,100.0
2019-01-06T01:28:16.211Z,100.0
2019-01-06T01:29:16.470Z,100.0
2019-01-06T01:30:16.729Z,100.0
2019-01-06T01:31:15.783Z,100.0
2019-01-06T01:32:16.052Z,100.0
2019-01-06T01:33:16.325Z,100.0
2019-01-06T01:34:16.584Z,100.0
2019-01-06T01:35:15.849Z,100.0
2019-01-06T01:36:16.122Z,100.0
2019-01-06T01:37:16.392Z,100.0
2019-01-06T01:38:16.654Z,100.0
2019-01-06T01:39:15.932Z,100.0
2019-01-06T01:40:16.212Z,100.0
2019-01-06T01:41:16.270Z,100.0
2019-01-06T01:42:16.538Z,100.0
2019-01-06T01:43:15.800Z,100.0
2019-01-06T01:44:16.064Z,100.0
2019-01-06T01:45:16.349Z,100.0
2019-01-06T01:46:16.619Z,100.0
2019-01-06T01:47:15.892Z,100.0
2019-01-06T01:48:16.155Z,100.0
2019-01-06T01:49:16.433Z,100.0
2019-01-06T01:50:16.703Z,100.0
2019-01-06T01:51:16.750Z,100.0
2019-01-06T01:52:16.009Z,100.0
2019-01-06T01:53:16.269Z,100.0
2019-01-06T01:54:16.535Z,100.0
2019-01-06T01:55:15.808Z,100.0
2019-01-06T01:56:16.071Z,100.0
2019-01-06T01:57:16.344Z,100.0
2019-01-06T01:58:16.608Z,100.0
2019-01-06T01:59:15.868Z,100.0
2019-01-06T02:00:16.143Z,100.0
2019-01-06T02:01:16.210Z,100.0
2019-01-06T02:02:16.476Z,100.0
2019-01-06T02:03:16.815Z,100.0
2019-01-06T02:04:16.080Z,100.0
2019-01-06T02:05:16.376Z,100.0
2019-01-06T02:06:16.630Z,100.0
2019-01-06T02:07:15.903Z,100.0
2019-01-06T02:08:16.179Z,100.0
2019-01-06T02:09:16.439Z,100.0
2019-01-06T02:10:16.708Z,100.0
2019-01-06T02:11:15.767Z,100.0
2019-01-06T02:12:16.017Z,100.0
2019-01-06T02:13:16.287Z,100.0
2019-01-06T02:14:16.544Z,100.0
2019-01-06T02:15:15.851Z,100.0
2019-01-06T02:16:16.117Z,100.0
2019-01-06T02:17:16.383Z,100.0
2019-01-06T02:18:16.653Z,100.0
2019-01-06T02:19:15.941Z,100.0
2019-01-06T02:20:16.212Z,100.0
2019-01-06T02:21:16.238Z,100.0
2019-01-06T02:22:16.497Z,100.0
2019-01-06T02:23:16.765Z,100.0
2019-01-06T02:24:16.045Z,100.0
2019-01-06T02:25:16.312Z,100.0
2019-01-06T02:26:16.590Z,100.0
2019-01-06T02:27:15.851Z,100.0
2019-01-06T02:28:16.129Z,100.0
2019-01-06T02:29:16.676Z,100.0
2019-01-06T02:30:15.961Z,100.0
2019-01-06T02:31:16.035Z,100.0
2019-01-06T02:32:16.319Z,100.0
2019-01-06T02:33:16.594Z,100.0
2019-01-06T02:34:16.277Z,100.0
2019-01-06T02:35:16.556Z,100.0
2019-01-06T02:36:15.833Z,100.0
2019-01-06T02:37:16.094Z,100.0
2019-01-06T02:38:16.371Z,100.0
2019-01-06T02:39:16.650Z,100.0
2019-01-06T02:40:15.923Z,100.0
2019-01-06T02:41:15.981Z,100.0
2019-01-06T02:42:16.255Z,100.0
2019-01-06T02:43:16.524Z,100.0
2019-01-06T02:44:15.788Z,100.0
2019-01-06T02:45:16.183Z,100.0
2019-01-06T02:46:16.454Z,100.0
2019-01-06T02:47:16.722Z,100.0
2019-01-06T02:48:15.995Z,100.0
2019-01-06T02:49:16.275Z,100.0
2019-01-06T02:50:16.564Z,100.0
2019-01-06T02:51:16.678Z,100.0
2019-01-06T02:52:15.953Z,100.0
2019-01-06T02:53:16.210Z,100.0
2019-01-06T02:54:16.470Z,100.0
2019-01-06T02:55:16.729Z,100.0
2019-01-06T02:56:15.996Z,100.0
2019-01-06T02:57:16.263Z,100.0
2019-01-06T02:58:16.529Z,100.0
2019-01-06T02:59:16.068Z,100.0
2019-01-06T03:00:16.361Z,100.0
2019-01-06T03:01:16.403Z,100.0
2019-01-06T03:02:16.674Z,100.0
2019-01-06T03:03:15.969Z,100.0
2019-01-06T03:04:16.235Z,100.0
2019-01-06T03:05:16.497Z,100.0
2019-01-06T03:06:16.761Z,100.0
2019-01-06T03:07:16.055Z,100.0
2019-01-06T03:08:16.318Z,100.0
2019-01-06T03:09:16.582Z,100.0
2019-01-06T03:10:15.865Z,100.0
2019-01-06T03:11:15.913Z,100.0
2019-01-06T03:12:16.197Z,100.0
2019-01-06T03:13:16.482Z,100.0
2019-01-06T03:14:17.027Z,100.0
2019-01-06T03:15:16.316Z,100.0
2019-01-06T03:16:16.584Z,100.0
2019-01-06T03:17:15.864Z,100.0
2019-01-06T03:18:16.131Z,100.0
2019-01-06T03:19:16.402Z,100.0
2019-01-06T03:20:16.695Z,100.0
2019-01-06T03:21:16.707Z,100.0
2019-01-06T03:22:15.968Z,100.0
2019-01-06T03:23:16.228Z,100.0
2019-01-06T03:24:16.558Z,100.0
2019-01-06T03:25:15.840Z,100.0
2019-01-06T03:26:16.104Z,100.0
2019-01-06T03:27:16.410Z,100.0
2019-01-06T03:28:16.688Z,100.0
2019-01-06T03:29:15.953Z,100.0
2019-01-06T03:30:16.229Z,100.0
2019-01-06T03:31:16.324Z,100.0
2019-01-06T03:32:16.607Z,100.0
2019-01-06T03:33:15.906Z,100.0
2019-01-06T03:34:16.178Z,100.0
2019-01-06T03:35:16.449Z,100.0
2019-01-06T03:36:16.722Z,100.0
2019-01-06T03:37:15.982Z,100.0
2019-01-06T03:38:16.248Z,100.0
2019-01-06T03:39:16.515Z,100.0
2019-01-06T03:40:15.788Z,100.0
2019-01-06T03:41:16.340Z,100.0
2019-01-06T03:42:16.690Z,100.0
2019-01-06T03:43:15.951Z,100.0
2019-01-06T03:44:16.218Z,100.0
2019-01-06T03:45:16.503Z,99.9
2019-01-06T03:46:15.769Z,100.0
2019-01-06T03:47:16.040Z,100.0
2019-01-06T03:48:16.298Z,100.0
2019-01-06T03:49:16.567Z,100.0
2019-01-06T03:50:15.850Z,100.0
2019-01-06T03:51:15.886Z,100.0
2019-01-06T03:52:16.160Z,100.0
2019-01-06T03:53:16.431Z,100.0
2019-01-06T03:54:17.014Z,100.0
2019-01-06T03:55:16.293Z,100.0
2019-01-06T03:56:16.559Z,100.0
2019-01-06T03:57:15.825Z,100.0
2019-01-06T03:58:16.087Z,100.0
2019-01-06T03:59:16.367Z,100.0
2019-01-06T04:00:16.653Z,100.0
2019-01-06T04:01:16.712Z,100.0
2019-01-06T04:02:15.980Z,100.0
2019-01-06T04:03:16.244Z,100.0
2019-01-06T04:04:16.515Z,100.0
2019-01-06T04:05:15.784Z,100.0
2019-01-06T04:06:16.044Z,100.0
2019-01-06T04:07:16.306Z,100.0
2019-01-06T04:08:16.567Z,100.0
2019-01-06T04:09:15.822Z,100.0
2019-01-06T04:10:16.095Z,100.0
2019-01-06T04:11:16.146Z,100.0
2019-01-06T04:12:16.422Z,100.0
2019-01-06T04:13:16.689Z,100.0
2019-01-06T04:14:15.976Z,99.8
2019-01-06T04:15:16.266Z,99.9
2019-01-06T04:16:16.550Z,99.9
2019-01-06T04:17:15.827Z,99.8
2019-01-06T04:18:16.093Z,99.9
2019-01-06T04:19:16.362Z,99.9
2019-01-06T04:20:16.633Z,99.9
2019-01-06T04:21:16.686Z,99.9
2019-01-06T04:22:15.946Z,100.0
2019-01-06T04:23:16.207Z,100.0
2019-01-06T04:24:16.739Z,100.0
2019-01-06T04:25:16.015Z,100.0
2019-01-06T04:26:16.293Z,100.0
2019-01-06T04:27:16.558Z,100.0
2019-01-06T04:28:15.828Z,100.0
2019-01-06T04:29:16.095Z,100.0
2019-01-06T04:30:16.653Z,100.0
2019-01-06T04:31:16.425Z,100.0
2019-01-06T04:32:16.690Z,100.0
2019-01-06T04:33:15.956Z,100.0
2019-01-06T04:34:16.231Z,100.0
2019-01-06T04:35:16.499Z,100.0
2019-01-06T04:36:16.766Z,100.0
2019-01-06T04:37:16.046Z,100.0
2019-01-06T04:38:16.314Z,100.0
2019-01-06T04:39:16.572Z,100.0
2019-01-06T04:40:15.849Z,100.0
2019-01-06T04:41:15.883Z,100.0
2019-01-06T04:42:16.146Z,100.0
2019-01-06T04:43:16.406Z,100.0
2019-01-06T04:44:16.699Z,100.0
2019-01-06T04:45:16.077Z,100.0
2019-01-06T04:46:16.336Z,100.0
2019-01-06T04:47:16.604Z,100.0
2019-01-06T04:48:15.869Z,100.0
2019-01-06T04:49:16.136Z,100.0
2019-01-06T04:50:16.404Z,100.0
2019-01-06T04:51:16.462Z,100.0
2019-01-06T04:52:16.736Z,100.0
2019-01-06T04:53:15.998Z,100.0
2019-01-06T04:54:16.263Z,100.0
2019-01-06T04:55:16.537Z,100.0
2019-01-06T04:56:16.001Z,100.0
2019-01-06T04:57:16.279Z,100.0
2019-01-06T04:58:16.547Z,100.0
2019-01-06T04:59:15.815Z,100.0
2019-01-06T05:00:16.095Z,100.0
2019-01-06T05:01:16.147Z,100.0
2019-01-06T05:02:16.423Z,100.0
2019-01-06T05:03:16.695Z,100.0
2019-01-06T05:04:15.955Z,100.0
2019-01-06T05:05:16.221Z,100.0
2019-01-06T05:06:16.491Z,100.0
2019-01-06T05:07:16.760Z,100.0
2019-01-06T05:08:16.019Z,100.0
2019-01-06T05:09:16.307Z,100.0
2019-01-06T05:10:16.622Z,100.0
2019-01-06T05:11:16.612Z,100.0
2019-01-06T05:12:15.886Z,100.0
2019-01-06T05:13:16.156Z,100.0
2019-01-06T05:14:16.425Z,100.0
2019-01-06T05:15:16.692Z,100.0
2019-01-06T05:16:15.955Z,100.0
2019-01-06T05:17:16.492Z,100.0
2019-01-06T05:18:16.753Z,100.0
2019-01-06T05:19:16.027Z,100.0
2019-01-06T05:20:16.321Z,100.0
2019-01-06T05:21:16.351Z,100.0
2019-01-06T05:22:16.908Z,100.0
2019-01-06T05:23:16.179Z,100.0
2019-01-06T05:24:16.448Z,100.0
2019-01-06T05:25:16.722Z,100.0
2019-01-06T05:26:15.980Z,100.0
2019-01-06T05:27:16.239Z,100.0
2019-01-06T05:28:16.499Z,100.0
2019-01-06T05:29:15.772Z,100.0
2019-01-06T05:30:16.041Z,100.0
2019-01-06T05:31:16.099Z,100.0
2019-01-06T05:32:16.369Z,100.0
2019-01-06T05:33:16.642Z,100.0
2019-01-06T05:34:15.909Z,100.0
2019-01-06T05:35:16.179Z,100.0
2019-01-06T05:36:16.451Z,100.0
2019-01-06T05:37:16.710Z,100.0
2019-01-06T05:38:16.363Z,100.0
2019-01-06T05:39:16.617Z,100.0
2019-01-06T05:40:15.908Z,100.0
2019-01-06T05:41:15.937Z,100.0
2019-01-06T05:42:16.199Z,100.0
2019-01-06T05:43:16.467Z,100.0
2019-01-06T05:44:16.737Z,100.0
2019-01-06T05:45:16.017Z,100.0
2019-01-06T05:46:16.287Z,100.0
2019-01-06T05:47:16.558Z,100.0
2019-01-06T05:48:15.821Z,100.0
2019-01-06T05:49:16.093Z,100.0
2019-01-06T05:50:16.366Z,100.0
2019-01-06T05:51:16.434Z,100.0
2019-01-06T05:52:16.696Z,100.0
2019-01-06T05:53:15.956Z,100.0
2019-01-06T05:54:16.219Z,100.0
2019-01-06T05:55:16.497Z,100.0
2019-01-06T05:56:16.766Z,100.0
2019-01-06T05:57:16.034Z,100.0
2019-01-06T05:58:16.302Z,100.0
2019-01-06T05:59:16.573Z,100.0
2019-01-06T06:00:15.833Z,100.0
2019-01-06T06:01:15.919Z,100.0
2019-01-06T06:02:16.183Z,100.0
2019-01-06T06:03:16.446Z,100.0
2019-01-06T06:04:16.711Z,100.0
2019-01-06T06:05:15.973Z,100.0
2019-01-06T06:06:16.241Z,100.0
2019-01-06T06:07:16.504Z,100.0
2019-01-06T06:08:15.772Z,100.0
2019-01-06T06:09:16.028Z,100.0
2019-01-06T06:10:16.306Z,100.0
2019-01-06T06:11:16.341Z,100.0
2019-01-06T06:12:16.615Z,100.0
2019-01-06T06:13:15.898Z,100.0
2019-01-06T06:14:16.160Z,100.0
2019-01-06T06:15:16.414Z,100.0
2019-01-06T06:16:16.670Z,100.0
2019-01-06T06:17:15.938Z,100.0
2019-01-06T06:18:16.208Z,100.0
2019-01-06T06:19:16.476Z,100.0
2019-01-06T06:20:16.742Z,100.0
2019-01-06T06:21:15.806Z,100.0
2019-01-06T06:22:16.086Z,100.0
2019-01-06T06:23:16.347Z,100.0
2019-01-06T06:24:17.892Z,100.0
2019-01-06T06:25:16.160Z,100.0
2019-01-06T06:26:16.430Z,100.0
2019-01-06T06:27:16.699Z,100.0
2019-01-06T06:28:15.966Z,100.0
2019-01-06T06:29:16.221Z,100.0
2019-01-06T06:30:16.503Z,100.0
2019-01-06T06:31:16.528Z,100.0
2019-01-06T06:32:15.804Z,100.0
2019-01-06T06:33:16.070Z,100.0
2019-01-06T06:34:16.342Z,100.0
2019-01-06T06:35:16.629Z,100.0
2019-01-06T06:36:15.926Z,100.0
2019-01-06T06:37:16.192Z,100.0
2019-01-06T06:38:16.456Z,100.0
2019-01-06T06:39:16.755Z,100.0
2019-01-06T06:40:16.200Z,100.0
2019-01-06T06:41:16.080Z,100.0
2019-01-06T06:42:16.358Z,100.0
2019-01-06T06:43:16.623Z,100.0
2019-01-06T06:44:15.895Z,100.0
2019-01-06T06:45:16.177Z,100.0
2019-01-06T06:46:16.448Z,100.0
2019-01-06T06:47:16.714Z,100.0
2019-01-06T06:48:15.980Z,100.0
2019-01-06T06:49:16.250Z,100.0
2019-01-06T06:50:16.528Z,100.0
2019-01-06T06:51:16.569Z,100.0
2019-01-06T06:52:15.833Z,100.0
2019-01-06T06:53:16.102Z,100.0
2019-01-06T06:54:16.363Z,100.0
2019-01-06T06:55:16.630Z,100.0
2019-01-06T06:56:15.902Z,100.0
2019-01-06T06:57:16.161Z,100.0
2019-01-06T06:58:16.427Z,100.0
2019-01-06T06:59:16.703Z,100.0
2019-01-06T07:00:15.971Z,100.0
2019-01-06T07:01:16.021Z,100.0
2019-01-06T07:02:16.277Z,100.0
2019-01-06T07:03:16.827Z,100.0
2019-01-06T07:04:16.092Z,100.0
2019-01-06T07:05:16.357Z,100.0
2019-01-06T07:06:16.621Z,100.0
2019-01-06T07:07:15.889Z,100.0
2019-01-06T07:08:16.147Z,100.0
2019-01-06T07:09:16.416Z,100.0
2019-01-06T07:10:16.687Z,100.0
2019-01-06T07:11:16.718Z,100.0
2019-01-06T07:12:15.977Z,100.0
2019-01-06T07:13:16.244Z,100.0
2019-01-06T07:14:16.506Z,100.0
2019-01-06T07:15:15.790Z,100.0
2019-01-06T07:16:16.049Z,100.0
2019-01-06T07:17:16.309Z,100.0
2019-01-06T07:18:16.578Z,100.0
2019-01-06T07:19:15.840Z,100.0
2019-01-06T07:20:16.124Z,100.0
2019-01-06T07:21:16.148Z,100.0
2019-01-06T07:22:16.414Z,100.0
2019-01-06T07:23:16.674Z,100.0
2019-01-06T07:24:15.938Z,100.0
2019-01-06T07:25:16.497Z,100.0
2019-01-06T07:26:16.765Z,100.0
2019-01-06T07:27:16.038Z,100.0
2019-01-06T07:28:16.301Z,100.0
2019-01-06T07:29:16.593Z,100.0
2019-01-06T07:30:15.886Z,100.0
2019-01-06T07:31:15.941Z,100.0
2019-01-06T07:32:16.199Z,100.0
2019-01-06T07:33:16.485Z,100.0
2019-01-06T07:34:16.761Z,100.0
2019-01-06T07:35:16.025Z,100.0
2019-01-06T07:36:16.303Z,100.0
2019-01-06T07:37:16.563Z,100.0
2019-01-06T07:38:15.834Z,100.0
2019-01-06T07:39:16.101Z,100.0
2019-01-06T07:40:16.383Z,100.0
2019-01-06T07:41:16.419Z,100.0
2019-01-06T07:42:16.675Z,100.0
2019-01-06T07:43:15.941Z,100.0
2019-01-06T07:44:16.213Z,100.0
2019-01-06T07:45:16.479Z,100.0
2019-01-06T07:46:16.742Z,100.0
2019-01-06T07:47:16.016Z,100.0
2019-01-06T07:48:16.292Z,100.0
2019-01-06T07:49:16.550Z,100.0
2019-01-06T07:50:15.853Z,100.0
2019-01-06T07:51:15.914Z,100.0
2019-01-06T07:52:16.177Z,100.0
2019-01-06T07:53:16.455Z,100.0
2019-01-06T07:54:16.723Z,100.0
2019-01-06T07:55:15.992Z,100.0
2019-01-06T07:56:16.265Z,100.0
2019-01-06T07:57:16.534Z,100.0
2019-01-06T07:58:15.796Z,100.0
2019-01-06T07:59:16.068Z,100.0
2019-01-06T08:00:16.347Z,100.0
2019-01-06T08:01:16.382Z,100.0
2019-01-06T08:02:16.656Z,100.0
2019-01-06T08:03:15.917Z,100.0
2019-01-06T08:04:16.193Z,100.0
2019-01-06T08:05:16.458Z,100.0
2019-01-06T08:06:17.016Z,100.0
2019-01-06T08:07:16.277Z,100.0
2019-01-06T08:08:16.539Z,100.0
2019-01-06T08:09:15.817Z,100.0
2019-01-06T08:10:16.099Z,100.0
2019-01-06T08:11:16.136Z,100.0
2019-01-06T08:12:16.395Z,100.0
2019-01-06T08:13:16.648Z,100.0
2019-01-06T08:14:15.918Z,100.0
2019-01-06T08:15:16.206Z,100.0
2019-01-06T08:16:16.472Z,100.0
2019-01-06T08:17:16.735Z,100.0
2019-01-06T08:18:15.993Z,100.0
2019-01-06T08:19:16.278Z,100.0
2019-01-06T08:20:16.559Z,100.0
2019-01-06T08:21:16.643Z,100.0
2019-01-06T08:22:15.912Z,99.2
2019-01-06T08:23:16.179Z,98.7
2019-01-06T08:24:16.444Z,98.5
2019-01-06T08:25:16.712Z,98.6
2019-01-06T08:26:15.975Z,98.5
2019-01-06T08:27:16.232Z,98.3
2019-01-06T08:28:16.511Z,98.8
2019-01-06T08:29:15.778Z,98.8
2019-01-06T08:30:16.054Z,98.8
2019-01-06T08:31:16.114Z,99.1
2019-01-06T08:32:16.384Z,99.0
2019-01-06T08:33:16.653Z,99.0
2019-01-06T08:34:15.922Z,99.1
2019-01-06T08:35:16.189Z,99.3
2019-01-06T08:36:16.454Z,99.4
2019-01-06T08:37:16.712Z,99.3
2019-01-06T08:38:15.976Z,99.3
2019-01-06T08:39:16.237Z,99.2
2019-01-06T08:40:16.521Z,99.3
2019-01-06T08:41:16.813Z,99.3
2019-01-06T08:42:16.091Z,99.2
2019-01-06T08:43:16.359Z,99.2
2019-01-06T08:44:16.612Z,99.2
2019-01-06T08:45:15.891Z,99.2
2019-01-06T08:46:16.156Z,99.2
2019-01-06T08:47:16.428Z,99.2
2019-01-06T08:48:16.700Z,99.4
2019-01-06T08:49:15.963Z,99.4
2019-01-06T08:50:16.279Z,99.5
2019-01-06T08:51:16.286Z,99.5
2019-01-06T08:52:16.552Z,99.5
2019-01-06T08:53:15.807Z,99.5
2019-01-06T08:54:16.077Z,99.5
2019-01-06T08:55:16.349Z,99.5
2019-01-06T08:56:16.621Z,99.5
2019-01-06T08:57:15.883Z,99.5
2019-01-06T08:58:16.144Z,99.4
2019-01-06T08:59:16.408Z,99.4
2019-01-06T09:00:16.667Z,99.4
2019-01-06T09:01:16.747Z,99.3
2019-01-06T09:02:16.014Z,99.3
2019-01-06T09:03:16.283Z,99.2
2019-01-06T09:04:16.552Z,99.2
2019-01-06T09:05:15.819Z,99.4
2019-01-06T09:06:16.082Z,99.4
2019-01-06T09:07:16.357Z,99.4
2019-01-06T09:08:16.621Z,99.3
2019-01-06T09:09:15.882Z,99.3
2019-01-06T09:10:16.161Z,99.1
2019-01-06T09:11:16.211Z,99.0
2019-01-06T09:12:16.483Z,99.1
2019-01-06T09:13:16.759Z,99.0
2019-01-06T09:14:16.027Z,98.9
2019-01-06T09:15:16.304Z,98.8
2019-01-06T09:16:16.564Z,98.6
2019-01-06T09:17:15.832Z,98.6
2019-01-06T09:18:16.109Z,98.8
2019-01-06T09:19:16.372Z,98.8
2019-01-06T09:20:16.660Z,98.8
2019-01-06T09:21:16.683Z,99.0
2019-01-06T09:22:15.944Z,99.0
2019-01-06T09:23:16.211Z,99.0
2019-01-06T09:24:16.471Z,98.8
2019-01-06T09:25:16.736Z,98.9
2019-01-06T09:26:16.003Z,99.0
2019-01-06T09:27:16.258Z,98.8
2019-01-06T09:28:16.526Z,98.9
2019-01-06T09:29:15.805Z,98.8
2019-01-06T09:30:16.081Z,98.8
2019-01-06T09:31:16.139Z,98.5
2019-01-06T09:32:16.405Z,98.5
2019-01-06T09:33:16.674Z,98.6
2019-01-06T09:34:15.940Z,98.7
2019-01-06T09:35:16.226Z,98.8
2019-01-06T09:36:16.494Z,98.8
2019-01-06T09:37:16.766Z,98.5
2019-01-06T09:38:16.021Z,98.5
2019-01-06T09:39:16.291Z,98.5
2019-01-06T09:40:16.564Z,98.5
2019-01-06T09:41:16.609Z,98.3
2019-01-06T09:42:15.866Z,98.3
2019-01-06T09:43:16.117Z,98.4
2019-01-06T09:44:16.383Z,98.4
2019-01-06T09:45:16.648Z,98.2
2019-01-06T09:46:15.912Z,97.8
2019-01-06T09:47:16.195Z,97.9
2019-01-06T09:48:16.464Z,97.8
2019-01-06T09:49:17.060Z,97.9
2019-01-06T09:50:16.346Z,97.9
2019-01-06T09:51:16.384Z,98.2
2019-01-06T09:52:16.650Z,98.1
2019-01-06T09:53:15.916Z,98.0
2019-01-06T09:54:16.182Z,97.9
2019-01-06T09:55:16.448Z,97.9
2019-01-06T09:56:16.707Z,98.0
2019-01-06T09:57:15.986Z,98.2
2019-01-06T09:58:16.239Z,98.0
2019-01-06T09:59:16.501Z,97.8
2019-01-06T10:00:15.785Z,97.7
2019-01-06T10:01:15.803Z,97.8
2019-01-06T10:02:16.060Z,97.8
2019-01-06T10:03:16.326Z,97.4
2019-01-06T10:04:16.595Z,97.7
2019-01-06T10:05:15.876Z,97.9
2019-01-06T10:06:16.142Z,98.0
2019-01-06T10:07:16.411Z,97.6
2019-01-06T10:08:16.679Z,97.7
2019-01-06T10:09:15.943Z,97.5
2019-01-06T10:10:16.213Z,97.3
2019-01-06T10:11:16.254Z,97.2
2019-01-06T10:12:16.535Z,97.2
2019-01-06T10:13:15.806Z,97.0
2019-01-06T10:14:16.082Z,96.7
2019-01-06T10:15:16.337Z,96.7
2019-01-06T10:16:16.601Z,96.7
2019-01-06T10:17:15.868Z,96.5
2019-01-06T10:18:16.140Z,96.4
2019-01-06T10:19:16.732Z,96.5
2019-01-06T10:20:16.010Z,96.4
2019-01-06T10:21:16.195Z,95.8
2019-01-06T10:22:16.467Z,96.1
2019-01-06T10:23:16.744Z,96.3
2019-01-06T10:24:16.017Z,96.2
2019-01-06T10:25:16.279Z,96.5
2019-01-06T10:26:16.549Z,96.4
2019-01-06T10:27:15.815Z,96.5
2019-01-06T10:28:16.081Z,96.3
2019-01-06T10:29:16.349Z,96.0
2019-01-06T10:30:16.623Z,95.9
2019-01-06T10:31:16.672Z,96.0
2019-01-06T10:32:15.942Z,96.1
2019-01-06T10:33:16.216Z,96.2
2019-01-06T10:34:16.505Z,96.2
2019-01-06T10:35:15.766Z,96.2
2019-01-06T10:36:16.036Z,96.3
2019-01-06T10:37:16.299Z,95.7
2019-01-06T10:38:16.568Z,95.5
2019-01-06T10:39:15.838Z,95.6
2019-01-06T10:40:16.117Z,95.2
2019-01-06T10:41:16.155Z,95.2
2019-01-06T10:42:16.422Z,94.8
2019-01-06T10:43:16.685Z,93.9
2019-01-06T10:44:15.947Z,93.7
2019-01-06T10:45:16.216Z,93.5
2019-01-06T10:46:16.473Z,93.2
2019-01-06T10:47:16.742Z,92.6
2019-01-06T10:48:16.001Z,92.6
2019-01-06T10:49:16.263Z,93.4
2019-01-06T10:50:16.536Z,93.0
2019-01-06T10:51:16.607Z,93.3
2019-01-06T10:52:15.865Z,93.2
2019-01-06T10:53:16.122Z,92.8
2019-01-06T10:54:16.389Z,93.0
2019-01-06T10:55:16.660Z,93.3
2019-01-06T10:56:15.934Z,93.5
2019-01-06T10:57:16.208Z,93.7
2019-01-06T10:58:16.468Z,93.8
2019-01-06T10:59:16.780Z,93.4
2019-01-06T11:00:16.065Z,93.2
2019-01-06T11:01:16.106Z,92.9
2019-01-06T11:02:16.381Z,92.9
2019-01-06T11:03:16.652Z,92.7
2019-01-06T11:04:15.915Z,92.3
2019-01-06T11:05:16.183Z,91.8
2019-01-06T11:06:16.451Z,92.4
2019-01-06T11:07:16.724Z,92.2
2019-01-06T11:08:17.847Z,92.1
2019-01-06T11:09:16.281Z,91.5
2019-01-06T11:10:16.562Z,91.0
2019-01-06T11:11:16.603Z,90.9
2019-01-06T11:12:15.867Z,90.8
2019-01-06T11:13:16.130Z,90.7
2019-01-06T11:14:16.393Z,90.8
2019-01-06T11:15:16.653Z,90.7
2019-01-06T11:16:15.913Z,91.3
2019-01-06T11:17:16.187Z,90.8
2019-01-06T11:18:16.455Z,90.3
2019-01-06T11:19:17.045Z,90.3
2019-01-06T11:20:16.315Z,90.7
2019-01-06T11:21:16.364Z,89.8
2019-01-06T11:22:16.642Z,90.3
2019-01-06T11:23:15.907Z,89.2
2019-01-06T11:24:16.168Z,89.3
2019-01-06T11:25:16.452Z,89.3
2019-01-06T11:26:16.727Z,89.6
2019-01-06T11:27:15.999Z,89.1
2019-01-06T11:28:16.264Z,89.8
2019-01-06T11:29:16.531Z,89.9
2019-01-06T11:30:15.808Z,89.9
2019-01-06T11:31:15.850Z,89.9
2019-01-06T11:32:16.112Z,89.5
2019-01-06T11:33:16.371Z,89.3
2019-01-06T11:34:16.636Z,90.1
2019-01-06T11:35:15.913Z,90.4
2019-01-06T11:36:16.183Z,89.8
2019-01-06T11:37:16.443Z,89.0
2019-01-06T11:38:16.709Z,88.1
2019-01-06T11:39:15.968Z,88.2
2019-01-06T11:40:16.241Z,88.4
2019-01-06T11:41:16.283Z,88.5
2019-01-06T11:42:16.549Z,89.0
2019-01-06T11:43:15.810Z,89.0
2019-01-06T11:44:16.091Z,88.7
2019-01-06T11:45:16.366Z,88.7
2019-01-06T11:46:16.621Z,88.4
2019-01-06T11:47:15.899Z,88.5
2019-01-06T11:48:16.153Z,88.4
2019-01-06T11:49:16.413Z,88.3
2019-01-06T11:50:16.689Z,88.3
2019-01-06T11:51:16.727Z,87.9
2019-01-06T11:52:15.984Z,88.5
2019-01-06T11:53:16.241Z,88.6
2019-01-06T11:54:16.492Z,88.3
2019-01-06T11:55:16.768Z,88.6
2019-01-06T11:56:16.040Z,88.8
2019-01-06T11:57:16.304Z,88.5
2019-01-06T11:58:16.562Z,88.6
2019-01-06T11:59:15.824Z,88.5
2019-01-06T12:00:16.383Z,89.1
2019-01-06T12:01:16.144Z,89.5
2019-01-06T12:02:16.406Z,89.7
2019-01-06T12:03:16.680Z,89.6
2019-01-06T12:04:15.946Z,89.2
2019-01-06T12:05:16.204Z,89.2
2019-01-06T12:06:16.474Z,89.5
2019-01-06T12:07:16.738Z,88.8
2019-01-06T12:08:16.006Z,89.0
2019-01-06T12:09:16.270Z,88.8
2019-01-06T12:10:16.789Z,88.8
2019-01-06T12:11:16.587Z,89.1
2019-01-06T12:12:15.862Z,89.3
2019-01-06T12:13:16.127Z,90.0
2019-01-06T12:14:16.396Z,89.8
2019-01-06T12:15:16.677Z,89.4
2019-01-06T12:16:15.947Z,90.1
2019-01-06T12:17:16.211Z,89.7
2019-01-06T12:18:16.474Z,89.8
2019-01-06T12:19:16.736Z,90.2
2019-01-06T12:20:16.002Z,90.4
2019-01-06T12:21:16.077Z,90.1
2019-01-06T12:22:16.357Z,90.0
2019-01-06T12:23:16.622Z,90.3
2019-01-06T12:24:15.887Z,90.2
2019-01-06T12:25:16.159Z,90.3
2019-01-06T12:26:16.419Z,90.7
2019-01-06T12:27:16.690Z,90.5
2019-01-06T12:28:15.976Z,90.8
2019-01-06T12:29:16.238Z,90.7
2019-01-06T12:30:16.519Z,90.8
2019-01-06T12:31:16.575Z,90.7
2019-01-06T12:32:15.846Z,91.1
2019-01-06T12:33:16.120Z,90.7
2019-01-06T12:34:16.388Z,91.0
2019-01-06T12:35:16.671Z,90.9
2019-01-06T12:36:15.929Z,90.5
2019-01-06T12:37:16.285Z,91.3
2019-01-06T12:38:16.547Z,91.2
2019-01-06T12:39:15.806Z,91.0
2019-01-06T12:40:16.085Z,91.4
2019-01-06T12:41:16.108Z,91.0
2019-01-06T12:42:16.379Z,90.7
2019-01-06T12:43:16.641Z,90.8
2019-01-06T12:44:15.913Z,90.0
2019-01-06T12:45:16.182Z,89.9
2019-01-06T12:46:16.451Z,90.2
2019-01-06T12:47:16.706Z,90.3
2019-01-06T12:48:15.968Z,90.3
2019-01-06T12:49:16.238Z,90.7
2019-01-06T12:50:16.561Z,91.2
2019-01-06T12:51:16.579Z,91.2
2019-01-06T12:52:15.841Z,91.0
2019-01-06T12:53:16.117Z,90.2
2019-01-06T12:54:16.384Z,89.8
2019-01-06T12:55:16.652Z,89.9
2019-01-06T12:56:15.924Z,89.9
2019-01-06T12:57:16.191Z,91.0
2019-01-06T12:58:16.444Z,91.2
2019-01-06T12:59:16.706Z,91.4
2019-01-06T13:00:15.968Z,91.7
2019-01-06T13:01:16.033Z,91.2
2019-01-06T13:02:16.295Z,91.3